createdAt,value
2023-05-23T05:20:14.270Z,14.36
2023-05-23T05:23:18.985Z,14.45
2023-05-23T05:26:24.530Z,14.58
2023-05-23T05:29:27.876Z,14.68
2023-05-23T05:32:34.749Z,14.88
2023-05-23T06:00:43.478Z,14.82
2023-05-23T06:03:46.135Z,14.98
2023-05-23T06:06:48.796Z,15.16
2023-05-23T06:09:51.312Z,15.32
2023-05-23T06:12:53.852Z,15.34
2023-05-23T06:15:58.420Z,15.41
2023-05-23T06:19:01.053Z,15.52
2023-05-23T06:22:03.604Z,15.80
2023-05-23T06:25:07.692Z,15.92
2023-05-23T06:28:10.284Z,16.13
2023-05-23T06:31:14.232Z,16.32
2023-05-23T06:34:17.674Z,16.40
2023-05-23T06:37:20.241Z,16.28
2023-05-23T06:40:23.057Z,16.34
2023-05-23T06:43:25.646Z,16.41
2023-05-23T06:46:29.548Z,16.39
2023-05-23T06:49:32.190Z,16.33
2023-05-23T06:52:34.685Z,16.32
2023-05-23T06:55:37.374Z,16.36
2023-05-23T06:58:39.889Z,16.44
2023-05-23T07:01:43.826Z,16.53
2023-05-23T07:04:46.562Z,16.65
2023-05-23T07:07:49.117Z,16.82
2023-05-23T07:10:51.627Z,16.95
2023-05-23T07:13:54.208Z,16.95
2023-05-23T07:16:58.091Z,17.11
2023-05-23T07:20:00.726Z,17.27
2023-05-23T07:23:03.298Z,17.43
2023-05-23T07:26:05.894Z,17.59
2023-05-23T07:29:08.428Z,17.76
2023-05-23T07:32:12.268Z,17.96
2023-05-23T07:35:14.981Z,18.07
2023-05-23T07:38:17.634Z,18.41
2023-05-23T07:41:20.163Z,18.61
2023-05-23T07:44:25.227Z,18.70
2023-05-23T07:47:29.314Z,18.63
2023-05-23T07:50:31.980Z,18.55
2023-05-23T07:53:34.991Z,18.63
2023-05-23T07:56:38.737Z,18.84
2023-05-23T07:59:41.315Z,19.39
2023-05-23T08:02:45.261Z,19.47
2023-05-23T08:05:48.318Z,19.66
2023-05-23T08:08:51.735Z,19.56
2023-05-23T08:11:54.516Z,19.78
2023-05-23T08:14:57.063Z,20.21
2023-05-23T08:18:01.239Z,20.23
2023-05-23T08:21:04.763Z,20.30
2023-05-23T08:24:07.374Z,20.90
2023-05-23T08:27:09.887Z,20.96
2023-05-23T08:30:13.638Z,21.30
2023-05-23T08:33:17.499Z,21.27
2023-05-23T08:36:20.046Z,21.35
2023-05-23T08:39:22.579Z,21.92
2023-05-23T08:42:25.860Z,22.14
2023-05-23T08:45:30.388Z,22.19
2023-05-23T08:48:37.379Z,22.30
2023-05-23T08:51:43.996Z,22.39
2023-05-23T08:54:47.821Z,23.28
2023-05-23T08:57:50.468Z,24.82
2023-05-23T09:00:53.758Z,25.79
2023-05-23T09:04:00.429Z,25.88
2023-05-23T09:07:03.975Z,23.96
2023-05-23T09:10:08.174Z,24.22
2023-05-23T09:13:10.801Z,24.85
2023-05-23T09:16:13.663Z,24.84
2023-05-23T09:19:19.445Z,24.83
2023-05-23T09:22:25.822Z,24.27
2023-05-23T09:25:28.357Z,23.59
2023-05-23T09:28:31.245Z,23.92
2023-05-23T09:31:34.577Z,23.68
2023-05-23T09:34:41.756Z,24.77
2023-05-23T09:37:47.014Z,25.48
2023-05-23T09:40:49.626Z,25.65
2023-05-23T09:43:52.997Z,24.96
2023-05-23T09:46:55.748Z,24.69
2023-05-23T09:49:59.899Z,24.61
2023-05-23T09:53:02.607Z,24.34
2023-05-23T09:56:05.711Z,24.40
2023-05-23T09:59:12.104Z,24.38
2023-05-23T10:02:19.600Z,24.00
2023-05-23T10:05:34.861Z,23.83
2023-05-23T10:08:40.179Z,23.84
2023-05-23T10:12:21.993Z,24.05
2023-05-23T10:15:31.906Z,25.51
2023-05-23T10:18:40.816Z,25.03
2023-05-23T10:21:51.515Z,26.28
2023-05-23T10:24:54.623Z,27.46
2023-05-23T10:28:02.407Z,27.61
2023-05-23T10:31:07.085Z,27.49
2023-05-23T10:34:18.095Z,26.94
2023-05-23T10:37:28.623Z,26.31
2023-05-23T10:40:40.863Z,26.80
2023-05-23T10:43:48.469Z,25.70
2023-05-23T10:46:54.004Z,25.39
2023-05-23T10:49:56.969Z,25.60
2023-05-23T10:53:01.963Z,25.82
2023-05-23T10:56:07.005Z,25.56
2023-05-23T10:59:10.709Z,25.82
2023-05-23T11:02:15.813Z,25.53
2023-05-23T11:05:23.794Z,25.84
2023-05-23T11:08:43.208Z,25.66
2023-05-23T11:11:54.296Z,25.42
2023-05-23T11:14:56.816Z,25.07
2023-05-23T11:17:59.490Z,24.09
2023-05-23T11:21:02.678Z,23.68
2023-05-23T11:24:06.813Z,23.57
2023-05-23T11:27:13.490Z,23.96
2023-05-23T11:30:17.972Z,24.10
2023-05-23T11:33:21.171Z,24.10
2023-05-23T11:36:24.112Z,23.52
2023-05-23T11:39:28.094Z,22.99
2023-05-23T11:42:30.986Z,23.58
2023-05-23T11:45:35.151Z,23.81
2023-05-23T11:48:38.001Z,22.78
2023-05-23T11:51:40.625Z,22.49
2023-05-23T11:54:44.632Z,22.45
2023-05-23T11:57:47.281Z,22.60
2023-05-23T12:00:49.900Z,22.75
2023-05-23T12:03:52.966Z,22.00
2023-05-23T12:06:56.228Z,21.76
2023-05-23T12:10:00.310Z,21.50
2023-05-23T12:16:05.939Z,21.03
2023-05-23T12:19:08.752Z,21.25
2023-05-23T12:22:11.309Z,21.78
2023-05-23T12:28:17.570Z,21.02
2023-05-23T12:31:22.410Z,21.16
2023-05-23T12:34:25.236Z,21.48
2023-05-23T12:37:28.010Z,21.32
2023-05-23T12:40:31.994Z,21.56
2023-05-23T12:43:38.429Z,21.87
2023-05-23T12:46:41.246Z,21.71
2023-05-23T12:49:44.919Z,21.58
2023-05-23T12:52:47.545Z,21.95
2023-05-23T12:55:51.440Z,22.44
2023-05-23T12:58:54.595Z,22.51
2023-05-23T13:01:57.138Z,22.17
2023-05-23T13:04:59.637Z,22.70
2023-05-23T13:08:02.171Z,22.97
2023-05-23T13:11:06.534Z,22.77
2023-05-23T13:14:09.137Z,22.67
2023-05-23T13:17:12.516Z,22.84
2023-05-23T13:20:15.291Z,23.03
2023-05-23T13:23:17.792Z,22.44
2023-05-23T13:26:21.818Z,21.83
2023-05-23T13:29:24.368Z,21.55
2023-05-23T13:32:26.924Z,21.20
2023-05-23T13:35:29.816Z,20.78
2023-05-23T13:38:32.375Z,20.97
2023-05-23T13:41:36.295Z,20.60
2023-05-23T13:44:38.977Z,20.76
2023-05-23T13:47:41.589Z,20.94
2023-05-23T13:50:44.596Z,21.13
2023-05-23T13:53:47.942Z,20.92
2023-05-23T13:56:51.802Z,20.62
2023-05-23T13:59:54.441Z,20.31
2023-05-23T14:02:57.054Z,20.16
2023-05-23T14:05:59.780Z,19.80
2023-05-23T14:09:02.426Z,19.57
2023-05-23T14:12:06.733Z,19.71
2023-05-23T14:15:10.800Z,19.56
2023-05-23T14:18:13.500Z,19.25
2023-05-23T14:21:16.257Z,19.19
2023-05-23T14:24:18.815Z,19.25
2023-05-23T14:27:22.826Z,19.21
2023-05-23T14:30:25.415Z,19.33
2023-05-23T14:33:27.983Z,19.54
2023-05-23T14:36:30.509Z,19.69
2023-05-23T14:39:33.027Z,19.86
2023-05-23T14:42:37.006Z,20.15
2023-05-23T14:45:39.855Z,20.81
2023-05-23T14:48:42.878Z,20.95
2023-05-23T14:51:50.896Z,20.85
2023-05-23T14:54:54.269Z,20.41
2023-05-23T14:57:58.175Z,19.63
2023-05-23T15:01:00.863Z,19.70
2023-05-23T15:04:05.747Z,19.80
2023-05-23T15:07:08.856Z,20.13
2023-05-23T15:10:11.620Z,20.22
2023-05-23T15:13:15.766Z,20.12
2023-05-23T15:16:18.376Z,19.41
2023-05-23T15:19:21.054Z,18.56
2023-05-23T15:25:48.120Z,17.19
2023-05-23T15:28:53.632Z,16.98
2023-05-23T15:31:56.553Z,16.92
2023-05-23T15:34:59.220Z,17.00
2023-05-23T15:38:01.747Z,16.77
2023-05-23T15:41:04.979Z,16.64
2023-05-23T15:44:08.984Z,16.36
2023-05-23T15:47:11.741Z,16.19
2023-05-23T15:50:14.525Z,15.88
2023-05-23T15:53:17.152Z,15.75
2023-05-23T15:56:19.678Z,15.64
2023-05-23T15:59:23.535Z,15.47
2023-05-23T16:02:26.179Z,15.43
2023-05-23T16:05:28.776Z,15.41
2023-05-23T16:08:31.353Z,15.36
2023-05-23T16:11:33.855Z,15.27
2023-05-23T16:14:37.788Z,15.25
2023-05-23T16:17:40.552Z,15.05
2023-05-23T16:20:43.081Z,15.08
2023-05-23T16:23:45.635Z,15.02
2023-05-23T16:26:48.176Z,14.79
2023-05-23T16:29:52.040Z,14.62
2023-05-23T16:32:54.744Z,14.61
2023-05-23T16:35:57.299Z,14.59
2023-05-23T16:38:59.869Z,14.51
2023-05-23T16:42:02.451Z,14.55
2023-05-23T16:45:07.821Z,14.55
2023-05-23T16:48:10.392Z,14.51
2023-05-23T16:51:13.128Z,14.38
2023-05-23T16:54:15.778Z,14.22
2023-05-23T16:57:18.329Z,14.13
2023-05-23T17:00:22.537Z,14.02
2023-05-23T17:03:25.236Z,13.98
2023-05-23T17:06:27.925Z,13.81
2023-05-23T17:09:30.814Z,13.67
2023-05-23T17:12:33.306Z,13.49
2023-05-23T17:15:37.641Z,13.31
2023-05-23T17:18:40.209Z,12.95
2023-05-23T17:21:42.749Z,12.80
2023-05-23T17:24:45.285Z,12.66
2023-05-23T17:27:47.840Z,12.61
2023-05-23T17:30:53.191Z,12.51
2023-05-23T17:33:56.045Z,12.42
2023-05-23T17:36:58.611Z,12.29
2023-05-23T17:40:01.871Z,12.13
2023-05-23T17:43:04.598Z,12.02
2023-05-23T17:46:08.501Z,12.06
2023-05-23T17:49:11.042Z,12.08
2023-05-23T17:52:15.017Z,12.06
2023-05-23T17:55:17.680Z,12.05
2023-05-23T17:58:20.239Z,11.95
2023-05-23T18:01:24.924Z,11.85
2023-05-23T18:04:27.795Z,11.82
2023-05-23T18:07:30.342Z,11.76
2023-05-23T18:10:32.914Z,11.72
2023-05-23T18:13:35.536Z,11.73
2023-05-23T18:16:39.427Z,11.73
2023-05-23T18:19:42.206Z,11.73
2023-05-23T18:22:44.908Z,11.74
2023-05-23T18:25:48.241Z,11.78
2023-05-23T18:28:50.924Z,11.78
2023-05-23T18:31:54.793Z,11.79
2023-05-23T18:34:57.315Z,11.78
